Time;durP1;ratioP1;P1;durP2;ratioP2;P2;SDS_P1;SDS_P2;PMS_P1;PMS_P2;Temp;Humidity;BMP_temperature;BMP_pressure;BME280_temperature;BME280_humidity;BME280_pressure;Samples;Min_cycle;Max_cycle;Signal;HPM_P1;HPM_P2
2024/01/19 00:00:30;;;;;;;10.02;5.57;;;;;;;;;;5015323;28;20041;-89
2024/01/19 00:02:55;;;;;;;8.90;5.90;;;;;;;;;;5013564;28;20045;-88
2024/01/19 00:05:20;;;;;;;5.63;4.05;;;;;;;;;;5010991;28;20026;-86
2024/01/19 00:07:45;;;;;;;9.40;4.63;;;;;;;;;;5010278;28;20030;-85
2024/01/19 00:10:11;;;;;;;13.40;5.15;;;;;;;;;;5010282;28;20092;-88
2024/01/19 00:12:36;;;;;;;12.75;6.13;;;;;;;;;;5011618;28;20041;-88
2024/01/19 00:15:06;;;;;;;8.38;4.78;;;;;;;;;;5012019;28;20040;-87
2024/01/19 00:17:31;;;;;;;5.85;4.80;;;;;;;;;;5013712;28;20325;-87
2024/01/19 00:19:57;;;;;;;5.00;3.83;;;;;;;;;;5013878;28;20083;-86
2024/01/19 00:22:22;;;;;;;9.23;5.43;;;;;;;;;;5012583;28;20045;-88
2024/01/19 00:24:47;;;;;;;6.85;5.15;;;;;;;;;;5018809;28;20041;-85
2024/01/19 00:27:13;;;;;;;10.13;4.53;;;;;;;;;;5022061;28;20080;-87
2024/01/19 00:29:39;;;;;;;7.78;4.80;;;;;;;;;;5009549;28;20030;-87
2024/01/19 00:32:05;;;;;;;14.52;6.13;;;;;;;;;;5011424;28;20589;-88
2024/01/19 00:34:30;;;;;;;10.85;6.13;;;;;;;;;;5010304;28;20026;-89
2024/01/19 00:36:56;;;;;;;6.78;4.40;;;;;;;;;;5010126;28;20040;-87
2024/01/19 00:39:21;;;;;;;6.40;3.83;;;;;;;;;;5013001;28;20691;-85
2024/01/19 00:41:46;;;;;;;11.88;4.85;;;;;;;;;;5019242;28;20030;-86
2024/01/19 00:44:12;;;;;;;7.90;4.20;;;;;;;;;;5012411;28;20439;-88
2024/01/19 00:46:37;;;;;;;12.10;5.78;;;;;;;;;;5011520;28;20069;-87
2024/01/19 00:49:02;;;;;;;6.97;3.58;;;;;;;;;;5010672;28;20507;-88
2024/01/19 00:51:28;;;;;;;12.32;4.40;;;;;;;;;;5011068;28;20033;-89
2024/01/19 00:53:53;;;;;;;8.40;5.00;;;;;;;;;;5009178;28;20029;-88
2024/01/19 00:56:19;;;;;;;12.55;6.95;;;;;;;;;;5013797;28;20045;-88
2024/01/19 00:58:45;;;;;;;5.85;2.85;;;;;;;;;;5011714;28;20014;-88
2024/01/19 01:01:12;;;;;;;6.40;4.75;;;;;;;;;;5013573;28;20113;-88
2024/01/19 01:03:37;;;;;;;8.40;5.20;;;;;;;;;;5013026;28;20404;-89
2024/01/19 01:06:05;;;;;;;4.43;3.97;;;;;;;;;;5007726;28;20029;-88
2024/01/19 01:08:34;;;;;;;8.95;3.58;;;;;;;;;;5011928;28;20025;-87
2024/01/19 01:10:59;;;;;;;12.05;5.32;;;;;;;;;;5010899;28;20057;-89
2024/01/19 01:13:25;;;;;;;5.97;4.07;;;;;;;;;;5011247;28;20037;-88
2024/01/19 01:15:51;;;;;;;6.60;5.32;;;;;;;;;;5011682;28;20034;-88
2024/01/19 01:18:16;;;;;;;6.40;4.50;;;;;;;;;;5012059;28;20084;-89
2024/01/19 01:20:43;;;;;;;6.65;4.22;;;;;;;;;;5012201;28;20068;-87
2024/01/19 01:23:08;;;;;;;6.93;5.10;;;;;;;;;;5013527;28;20109;-87
2024/01/19 01:25:33;;;;;;;6.82;5.50;;;;;;;;;;5013452;28;20025;-88
2024/01/19 01:27:59;;;;;;;9.00;4.30;;;;;;;;;;5014299;28;20026;-88
2024/01/19 01:30:24;;;;;;;8.00;4.57;;;;;;;;;;5000061;28;20444;-87
2024/01/19 01:32:49;;;;;;;5.80;5.22;;;;;;;;;;4995455;28;20053;-86
2024/01/19 01:35:15;;;;;;;9.70;4.70;;;;;;;;;;5012039;28;20053;-88
2024/01/19 01:37:40;;;;;;;9.05;5.10;;;;;;;;;;5012271;28;20026;-88
2024/01/19 01:40:07;;;;;;;8.20;5.32;;;;;;;;;;5013209;28;20018;-87
2024/01/19 01:42:32;;;;;;;4.45;3.13;;;;;;;;;;5011520;28;20563;-85
2024/01/19 01:45:00;;;;;;;5.25;4.75;;;;;;;;;;5005228;28;20037;-87
2024/01/19 01:47:26;;;;;;;8.68;3.75;;;;;;;;;;5014254;28;20026;-88
2024/01/19 01:49:51;;;;;;;10.80;5.72;;;;;;;;;;5011964;28;20100;-87
2024/01/19 01:52:16;;;;;;;5.43;4.30;;;;;;;;;;5010987;28;20022;-87
2024/01/19 01:54:42;;;;;;;7.57;4.63;;;;;;;;;;5011831;28;20025;-87
2024/01/19 01:57:07;;;;;;;9.52;4.53;;;;;;;;;;5016204;28;20026;-86
2024/01/19 01:59:33;;;;;;;7.57;5.05;;;;;;;;;;5015369;28;20487;-89
2024/01/19 02:01:58;;;;;;;5.30;3.55;;;;;;;;;;5014502;28;20030;-87
2024/01/19 02:04:25;;;;;;;6.15;4.30;;;;;;;;;;5016379;28;20050;-87
2024/01/19 02:06:51;;;;;;;7.82;4.50;;;;;;;;;;5014630;28;20387;-89
2024/01/19 02:09:17;;;;;;;8.95;6.22;;;;;;;;;;5014821;28;20536;-87
2024/01/19 02:11:43;;;;;;;11.43;4.95;;;;;;;;;;5014165;28;20503;-88
2024/01/19 02:14:10;;;;;;;6.70;3.92;;;;;;;;;;5014955;28;20127;-87
2024/01/19 02:16:36;;;;;;;14.73;5.93;;;;;;;;;;5019157;28;20018;-87
2024/01/19 02:19:01;;;;;;;11.82;6.47;;;;;;;;;;5016200;28;20044;-88
2024/01/19 02:21:27;;;;;;;5.22;4.28;;;;;;;;;;5014892;28;20041;-85
2024/01/19 02:24:01;;;;;;;7.18;4.07;;;;;;;;;;5017272;28;20025;-85
2024/01/19 02:26:28;;;;;;;10.43;4.85;;;;;;;;;;5023834;28;20038;-89
2024/01/19 02:28:53;;;;;;;14.35;5.72;;;;;;;;;;5016860;28;20477;-89
2024/01/19 02:31:18;;;;;;;9.77;5.00;;;;;;;;;;5015133;28;20030;-88
2024/01/19 02:33:44;;;;;;;7.90;5.97;;;;;;;;;;5015285;28;20030;-87
2024/01/19 02:36:09;;;;;;;7.47;5.07;;;;;;;;;;5015793;28;20114;-86
2024/01/19 02:38:34;;;;;;;10.50;5.00;;;;;;;;;;5017077;28;20113;-86
2024/01/19 02:41:00;;;;;;;8.23;6.28;;;;;;;;;;5015269;28;20049;-89
2024/01/19 02:43:25;;;;;;;9.05;4.60;;;;;;;;;;5014379;28;20426;-88
2024/01/19 02:45:50;;;;;;;11.25;5.40;;;;;;;;;;5025357;28;20071;-87
2024/01/19 02:48:16;;;;;;;8.73;5.28;;;;;;;;;;5016353;28;20068;-85
2024/01/19 02:50:41;;;;;;;8.40;5.40;;;;;;;;;;5014818;28;20485;-89
2024/01/19 02:53:07;;;;;;;5.82;3.65;;;;;;;;;;5015327;28;20491;-88
2024/01/19 02:55:32;;;;;;;5.88;4.43;;;;;;;;;;5014913;28;20373;-87
2024/01/19 02:57:57;;;;;;;6.65;4.32;;;;;;;;;;5015763;28;20033;-88
2024/01/19 03:00:23;;;;;;;8.57;4.53;;;;;;;;;;5014803;28;20033;-87
2024/01/19 03:02:48;;;;;;;17.85;3.80;;;;;;;;;;5014461;28;20024;-87
2024/01/19 03:05:14;;;;;;;4.75;4.03;;;;;;;;;;5012473;28;20019;-87
2024/01/19 03:07:39;;;;;;;4.10;3.75;;;;;;;;;;5014689;28;20556;-85
2024/01/19 03:10:05;;;;;;;5.20;4.28;;;;;;;;;;5006004;28;20031;-89
2024/01/19 03:12:30;;;;;;;9.30;3.63;;;;;;;;;;5013697;28;20029;-87
2024/01/19 03:14:55;;;;;;;6.47;3.38;;;;;;;;;;5015384;28;20388;-87
2024/01/19 03:17:21;;;;;;;5.25;3.50;;;;;;;;;;5013931;28;20112;-87
2024/01/19 03:19:46;;;;;;;6.57;4.38;;;;;;;;;;5013461;28;20112;-88
2024/01/19 03:22:11;;;;;;;11.23;3.10;;;;;;;;;;5010618;28;20022;-87
2024/01/19 03:24:37;;;;;;;5.53;3.75;;;;;;;;;;5013475;28;20018;-88
2024/01/19 03:27:02;;;;;;;9.50;5.80;;;;;;;;;;5013447;28;20014;-86
2024/01/19 03:29:27;;;;;;;2.95;2.42;;;;;;;;;;5013696;28;20061;-89
2024/01/19 03:31:53;;;;;;;7.10;3.33;;;;;;;;;;5015279;28;20048;-88
2024/01/19 03:34:19;;;;;;;5.15;3.83;;;;;;;;;;5014115;28;20033;-86
2024/01/19 03:36:44;;;;;;;6.32;4.50;;;;;;;;;;5014269;28;20049;-87
2024/01/19 03:39:10;;;;;;;9.82;4.35;;;;;;;;;;5014404;28;20084;-87
2024/01/19 03:41:35;;;;;;;10.20;4.70;;;;;;;;;;5014697;28;20095;-87
2024/01/19 03:44:00;;;;;;;7.05;4.43;;;;;;;;;;5015516;28;20431;-87
2024/01/19 03:46:26;;;;;;;9.73;5.80;;;;;;;;;;5014986;28;20586;-86
2024/01/19 03:48:51;;;;;;;6.82;3.70;;;;;;;;;;5015266;28;20100;-88
2024/01/19 03:51:16;;;;;;;9.55;4.25;;;;;;;;;;5015555;28;20026;-88
2024/01/19 03:53:43;;;;;;;5.90;3.25;;;;;;;;;;5024096;28;20026;-85
2024/01/19 03:56:09;;;;;;;10.38;4.20;;;;;;;;;;5017100;28;20087;-86
2024/01/19 03:58:34;;;;;;;4.65;3.85;;;;;;;;;;5014909;28;20571;-88
2024/01/19 04:01:00;;;;;;;7.53;5.00;;;;;;;;;;5015529;28;20026;-88
2024/01/19 04:03:25;;;;;;;3.90;3.60;;;;;;;;;;5021046;28;20053;-85
2024/01/19 04:05:51;;;;;;;6.63;3.75;;;;;;;;;;5024883;28;20052;-85
2024/01/19 04:08:16;;;;;;;7.30;5.15;;;;;;;;;;5014256;28;20022;-87
2024/01/19 04:10:41;;;;;;;5.43;3.60;;;;;;;;;;5013008;28;20025;-88
2024/01/19 04:13:07;;;;;;;3.65;3.13;;;;;;;;;;5012631;28;20472;-88
2024/01/19 04:15:32;;;;;;;6.90;3.80;;;;;;;;;;5013574;28;20025;-88
2024/01/19 04:17:57;;;;;;;4.60;3.95;;;;;;;;;;5013523;28;20048;-88
2024/01/19 04:20:23;;;;;;;7.18;4.20;;;;;;;;;;5012239;28;20021;-87
2024/01/19 04:22:48;;;;;;;5.47;3.92;;;;;;;;;;5015390;28;20029;-88
2024/01/19 04:25:14;;;;;;;8.13;4.53;;;;;;;;;;5013347;28;20022;-87
2024/01/19 04:27:39;;;;;;;8.82;4.22;;;;;;;;;;5013969;28;20068;-88
2024/01/19 04:30:05;;;;;;;8.15;4.20;;;;;;;;;;5011165;28;20120;-88
2024/01/19 04:32:30;;;;;;;10.27;4.53;;;;;;;;;;5011400;28;20036;-88
2024/01/19 04:34:56;;;;;;;6.20;4.10;;;;;;;;;;5014501;28;20037;-85
2024/01/19 04:37:21;;;;;;;8.63;5.82;;;;;;;;;;5013341;28;20040;-87
2024/01/19 04:39:46;;;;;;;7.95;4.60;;;;;;;;;;5011881;28;20026;-84
2024/01/19 04:42:12;;;;;;;7.05;4.85;;;;;;;;;;5004334;28;20029;-88
2024/01/19 04:44:38;;;;;;;12.77;4.82;;;;;;;;;;5015003;28;20083;-87
2024/01/19 04:47:03;;;;;;;8.07;4.57;;;;;;;;;;5012823;28;20022;-87
2024/01/19 04:49:29;;;;;;;7.55;4.20;;;;;;;;;;5013403;28;20029;-89
2024/01/19 04:51:54;;;;;;;6.22;4.75;;;;;;;;;;5011704;28;20112;-87
2024/01/19 04:54:19;;;;;;;7.45;4.75;;;;;;;;;;5014716;28;20103;-88
2024/01/19 04:56:45;;;;;;;9.10;4.32;;;;;;;;;;5014502;28;20029;-88
2024/01/19 04:59:10;;;;;;;10.43;5.13;;;;;;;;;;5014178;28;20063;-87
2024/01/19 05:01:35;;;;;;;6.70;4.72;;;;;;;;;;5012427;28;20113;-88
2024/01/19 05:04:00;;;;;;;7.78;4.75;;;;;;;;;;5013658;28;20030;-87
2024/01/19 05:06:26;;;;;;;5.20;3.65;;;;;;;;;;5020013;28;20025;-86
2024/01/19 05:08:51;;;;;;;5.35;3.53;;;;;;;;;;5018498;28;20022;-87
2024/01/19 05:11:16;;;;;;;6.53;4.30;;;;;;;;;;5012071;28;20030;-87
2024/01/19 05:13:43;;;;;;;4.55;3.65;;;;;;;;;;5013233;28;20129;-88
2024/01/19 05:16:08;;;;;;;8.27;5.13;;;;;;;;;;5014659;28;20553;-87
2024/01/19 05:18:34;;;;;;;6.85;4.22;;;;;;;;;;5013866;28;20142;-88
2024/01/19 05:21:00;;;;;;;8.55;4.35;;;;;;;;;;5012572;28;20108;-86
2024/01/19 05:23:25;;;;;;;11.52;4.35;;;;;;;;;;5011193;28;20037;-86
2024/01/19 05:25:51;;;;;;;7.20;3.25;;;;;;;;;;5012500;28;20030;-86
2024/01/19 05:28:16;;;;;;;5.10;4.05;;;;;;;;;;5012152;28;20072;-86
2024/01/19 05:30:42;;;;;;;5.47;3.83;;;;;;;;;;5015521;28;20483;-87
2024/01/19 05:33:08;;;;;;;8.73;3.38;;;;;;;;;;5016330;28;20034;-87
2024/01/19 05:35:33;;;;;;;11.38;4.93;;;;;;;;;;5016876;28;20136;-88
2024/01/19 05:37:59;;;;;;;7.53;4.18;;;;;;;;;;5018264;28;20036;-86
2024/01/19 05:40:24;;;;;;;7.53;4.35;;;;;;;;;;5018082;28;20129;-84
2024/01/19 05:42:49;;;;;;;4.40;4.03;;;;;;;;;;5014941;28;20037;-89
2024/01/19 05:45:15;;;;;;;9.23;3.50;;;;;;;;;;5019527;28;20029;-87
2024/01/19 05:47:42;;;;;;;5.60;3.42;;;;;;;;;;5024256;28;20010;-87
2024/01/19 05:50:08;;;;;;;7.20;5.05;;;;;;;;;;5021423;28;20520;-87
2024/01/19 05:52:33;;;;;;;5.13;3.53;;;;;;;;;;5017778;28;20022;-85
2024/01/19 05:54:58;;;;;;;6.22;4.72;;;;;;;;;;5015414;28;20018;-86
2024/01/19 05:57:24;;;;;;;4.53;4.10;;;;;;;;;;5016675;28;20018;-86
2024/01/19 05:59:49;;;;;;;4.32;3.78;;;;;;;;;;5018222;28;20025;-86
2024/01/19 06:02:14;;;;;;;4.97;4.47;;;;;;;;;;5017271;28;20022;-88
2024/01/19 06:04:41;;;;;;;5.35;3.90;;;;;;;;;;5018676;28;20076;-88
2024/01/19 06:07:06;;;;;;;8.95;4.68;;;;;;;;;;5016452;28;20026;-87
2024/01/19 06:09:32;;;;;;;5.60;4.30;;;;;;;;;;5017512;28;20089;-88
2024/01/19 06:11:57;;;;;;;8.82;5.70;;;;;;;;;;5017238;28;20037;-89
2024/01/19 06:14:23;;;;;;;11.77;6.13;;;;;;;;;;5016820;28;20034;-89
2024/01/19 06:16:49;;;;;;;11.07;4.20;;;;;;;;;;5017042;28;20026;-86
2024/01/19 06:19:14;;;;;;;4.80;3.78;;;;;;;;;;5015876;28;20030;-90
2024/01/19 06:21:45;;;;;;;11.85;5.60;;;;;;;;;;5015217;28;20030;-88
2024/01/19 06:24:16;;;;;;;8.07;4.07;;;;;;;;;;5015946;28;20057;-88
2024/01/19 06:26:48;;;;;;;5.03;4.20;;;;;;;;;;5016469;28;20571;-88
2024/01/19 06:29:13;;;;;;;;;;;;;;;;;;5016097;28;20068;-86
2024/01/19 06:31:46;;;;;;;4.57;3.90;;;;;;;;;;5016931;28;20144;-88
2024/01/19 06:34:11;;;;;;;;;;;;;;;;;;5015419;28;20040;-89
2024/01/19 06:36:36;;;;;;;2.20;1.92;;;;;;;;;;5016103;28;19914;-90
2024/01/19 06:39:02;;;;;;;5.95;4.45;;;;;;;;;;5014580;28;20022;-88
2024/01/19 06:41:27;;;;;;;7.47;4.25;;;;;;;;;;5017554;28;20037;-88
2024/01/19 06:43:53;;;;;;;3.83;3.22;;;;;;;;;;5015393;28;20033;-88
2024/01/19 06:46:18;;;;;;;5.38;3.78;;;;;;;;;;5016712;28;20112;-88
2024/01/19 06:48:43;;;;;;;5.10;3.15;;;;;;;;;;5015443;28;20101;-88
2024/01/19 06:51:20;;;;;;;3.78;2.80;;;;;;;;;;5014856;28;20075;-86
2024/01/19 06:53:45;;;;;;;5.20;3.55;;;;;;;;;;5014099;28;20042;-88
2024/01/19 06:56:10;;;;;;;4.63;3.35;;;;;;;;;;5014148;28;20657;-89
2024/01/19 06:58:36;;;;;;;7.22;4.13;;;;;;;;;;5015976;28;20100;-87
2024/01/19 07:01:01;;;;;;;4.20;3.33;;;;;;;;;;5015692;28;20022;-85
2024/01/19 07:03:26;;;;;;;6.40;4.53;;;;;;;;;;5013117;28;20021;-88
2024/01/19 07:05:52;;;;;;;5.28;4.63;;;;;;;;;;5014334;28;20069;-87
2024/01/19 07:08:17;;;;;;;6.45;4.50;;;;;;;;;;5015292;28;20033;-86
2024/01/19 07:10:43;;;;;;;9.38;4.55;;;;;;;;;;5013982;28;20022;-88
2024/01/19 07:13:08;;;;;;;5.70;4.53;;;;;;;;;;5012215;28;20453;-87
2024/01/19 07:15:33;;;;;;;9.77;4.25;;;;;;;;;;5014142;28;20029;-87
2024/01/19 07:17:59;;;;;;;3.28;2.97;;;;;;;;;;5014554;28;20076;-87
2024/01/19 07:20:24;;;;;;;13.13;3.83;;;;;;;;;;5014936;28;20439;-86
2024/01/19 07:22:53;;;;;;;5.63;5.05;;;;;;;;;;5016997;28;20100;-85
2024/01/19 07:25:18;;;;;;;3.85;3.47;;;;;;;;;;5018142;28;20096;-89
2024/01/19 07:27:44;;;;;;;5.40;4.32;;;;;;;;;;5015553;28;20025;-87
2024/01/19 07:30:09;;;;;;;5.70;3.28;;;;;;;;;;5017901;28;20041;-86
2024/01/19 07:32:34;;;;;;;5.03;3.05;;;;;;;;;;5016553;28;20029;-88
2024/01/19 07:35:00;;;;;;;9.55;4.90;;;;;;;;;;5017003;28;20129;-87
2024/01/19 07:37:25;;;;;;;11.60;5.90;;;;;;;;;;5022919;28;20018;-86
2024/01/19 07:39:50;;;;;;;8.88;4.15;;;;;;;;;;5028653;28;20065;-89
2024/01/19 07:42:16;;;;;;;6.38;3.72;;;;;;;;;;5017400;28;20054;-86
2024/01/19 07:44:41;;;;;;;15.45;4.47;;;;;;;;;;5017302;28;20097;-87
2024/01/19 07:47:06;;;;;;;7.85;5.82;;;;;;;;;;5016064;28;20018;-87
2024/01/19 07:49:32;;;;;;;8.35;4.88;;;;;;;;;;5026198;28;20442;-90
2024/01/19 07:51:57;;;;;;;12.80;7.32;;;;;;;;;;5013763;28;20535;-87
2024/01/19 07:54:23;;;;;;;13.60;4.53;;;;;;;;;;5017623;28;20022;-87
2024/01/19 07:56:48;;;;;;;4.63;4.15;;;;;;;;;;5016174;28;20049;-86
2024/01/19 07:59:14;;;;;;;6.65;5.30;;;;;;;;;;5012778;28;20025;-89
2024/01/19 08:01:39;;;;;;;12.05;4.15;;;;;;;;;;5015489;28;20022;-88
2024/01/19 08:04:04;;;;;;;6.97;4.68;;;;;;;;;;5013632;28;20060;-88
2024/01/19 08:06:30;;;;;;;5.78;3.63;;;;;;;;;;5015780;28;20048;-86
2024/01/19 08:08:56;;;;;;;9.35;5.75;;;;;;;;;;5016179;28;20091;-88
2024/01/19 08:11:21;;;;;;;30.50;9.80;;;;;;;;;;5018033;28;20034;-88
2024/01/19 08:13:47;;;;;;;19.17;9.55;;;;;;;;;;5011278;28;20030;-90
2024/01/19 08:16:12;;;;;;;25.27;7.85;;;;;;;;;;5015442;28;20414;-87
2024/01/19 08:18:38;;;;;;;19.17;9.95;;;;;;;;;;5015879;28;20353;-86
2024/01/19 08:21:03;;;;;;;18.55;8.75;;;;;;;;;;5014404;28;20026;-85
2024/01/19 08:23:29;;;;;;;16.10;7.68;;;;;;;;;;5012958;28;20049;-88
2024/01/19 08:25:55;;;;;;;9.45;6.00;;;;;;;;;;5014674;28;20026;-86
2024/01/19 08:28:20;;;;;;;11.23;5.85;;;;;;;;;;5014194;28;20447;-87
2024/01/19 08:30:46;;;;;;;16.05;5.07;;;;;;;;;;5015397;28;20026;-88
2024/01/19 08:33:12;;;;;;;6.47;5.40;;;;;;;;;;5014882;28;20026;-88
2024/01/19 08:35:38;;;;;;;4.07;3.35;;;;;;;;;;5015009;28;20029;-87
2024/01/19 08:38:03;;;;;;;6.00;5.22;;;;;;;;;;5013988;28;20044;-88
2024/01/19 08:40:29;;;;;;;2.03;1.92;;;;;;;;;;5014512;28;20033;-87
2024/01/19 08:42:54;;;;;;;7.80;3.30;;;;;;;;;;5012750;28;20116;-87
2024/01/19 08:45:19;;;;;;;5.05;3.63;;;;;;;;;;5012175;28;20034;-86
2024/01/19 08:47:45;;;;;;;3.72;3.35;;;;;;;;;;5012544;28;20018;-87
2024/01/19 08:50:10;;;;;;;5.05;3.75;;;;;;;;;;5012537;28;20036;-88
2024/01/19 08:52:35;;;;;;;8.85;4.55;;;;;;;;;;5004708;28;20026;-88
2024/01/19 08:55:01;;;;;;;9.27;4.10;;;;;;;;;;5013765;28;20026;-89
2024/01/19 08:57:27;;;;;;;6.20;4.25;;;;;;;;;;5017158;28;20072;-88
2024/01/19 08:59:52;;;;;;;7.50;5.05;;;;;;;;;;5014527;28;20104;-86
2024/01/19 09:02:18;;;;;;;7.53;5.07;;;;;;;;;;5012558;28;20765;-89
2024/01/19 09:04:43;;;;;;;14.05;5.68;;;;;;;;;;5015068;28;20021;-88
2024/01/19 09:07:08;;;;;;;9.90;5.63;;;;;;;;;;5018336;28;20109;-89
2024/01/19 09:09:34;;;;;;;7.80;4.55;;;;;;;;;;5017686;28;20030;-89
2024/01/19 09:11:59;;;;;;;5.35;4.53;;;;;;;;;;5017462;28;20030;-87
2024/01/19 09:14:26;;;;;;;5.47;4.18;;;;;;;;;;5017157;28;20450;-89
2024/01/19 09:16:51;;;;;;;7.05;4.07;;;;;;;;;;5018889;28;20026;-87
2024/01/19 09:19:17;;;;;;;9.23;4.55;;;;;;;;;;5019002;28;20018;-88
2024/01/19 09:21:45;;;;;;;12.50;5.57;;;;;;;;;;5017601;28;20076;-88
2024/01/19 09:24:11;;;;;;;5.35;4.22;;;;;;;;;;5016660;28;20053;-89
2024/01/19 09:26:37;;;;;;;5.85;4.28;;;;;;;;;;5023917;28;20014;-88
2024/01/19 09:29:02;;;;;;;7.47;4.13;;;;;;;;;;5017713;28;20026;-89
2024/01/19 09:31:28;;;;;;;8.10;2.72;;;;;;;;;;5017595;28;20026;-89
2024/01/19 09:33:53;;;;;;;8.10;4.32;;;;;;;;;;5017549;28;20538;-87
2024/01/19 09:36:18;;;;;;;11.73;5.78;;;;;;;;;;5016088;28;20041;-87
2024/01/19 09:38:44;;;;;;;4.57;3.95;;;;;;;;;;5016406;28;20022;-89
2024/01/19 09:41:30;;;;;;;8.32;3.72;;;;;;;;;;5017050;28;20030;-87
2024/01/19 09:43:58;;;;;;;5.13;3.72;;;;;;;;;;5015961;28;20578;-89
2024/01/19 09:46:28;;;;;;;1.98;1.80;;;;;;;;;;5017575;28;20026;-88
2024/01/19 09:49:12;;;;;;;7.70;4.85;;;;;;;;;;5017175;28;20083;-87
2024/01/19 09:51:55;;;;;;;7.78;5.50;;;;;;;;;;5015936;28;20022;-87
2024/01/19 09:54:33;;;;;;;9.35;5.05;;;;;;;;;;5015804;28;20030;-88
2024/01/19 09:57:03;;;;;;;9.85;6.88;;;;;;;;;;5017009;28;20026;-88
2024/01/19 09:59:32;;;;;;;10.90;6.40;;;;;;;;;;5015993;28;20022;-88
2024/01/19 10:01:59;;;;;;;12.00;6.63;;;;;;;;;;5015440;28;20040;-88
2024/01/19 10:04:25;;;;;;;11.45;7.35;;;;;;;;;;5017678;28;20034;-87
2024/01/19 10:06:51;;;;;;;10.32;6.00;;;;;;;;;;5016590;28;20017;-87
2024/01/19 10:09:21;;;;;;;16.80;6.85;;;;;;;;;;5016377;28;20037;-87
2024/01/19 10:11:52;;;;;;;20.85;6.90;;;;;;;;;;5016878;28;20021;-88
2024/01/19 10:14:20;;;;;;;7.30;5.90;;;;;;;;;;5016091;28;20030;-90
2024/01/19 10:16:50;;;;;;;13.05;5.93;;;;;;;;;;5016778;28;20045;-88
2024/01/19 10:19:16;;;;;;;25.25;7.88;;;;;;;;;;5017827;28;20022;-89
2024/01/19 10:21:42;;;;;;;14.07;7.32;;;;;;;;;;5015405;28;20032;-89
2024/01/19 10:24:19;;;;;;;9.45;6.25;;;;;;;;;;5015908;28;20109;-88
2024/01/19 10:26:52;;;;;;;13.98;7.28;;;;;;;;;;5016089;28;20026;-90
2024/01/19 10:29:18;;;;;;;12.98;6.65;;;;;;;;;;5020576;28;20041;-86
2024/01/19 10:31:46;;;;;;;11.98;6.18;;;;;;;;;;5025286;28;20453;-89
2024/01/19 10:34:23;;;;;;;4.43;2.08;;;;;;;;;;5016348;28;20022;-87
2024/01/19 10:36:49;;;;;;;9.35;5.05;;;;;;;;;;5014465;28;20032;-88
2024/01/19 10:39:22;;;;;;;10.85;6.10;;;;;;;;;;5016111;28;20087;-89
2024/01/19 10:41:50;;;;;;;15.60;5.63;;;;;;;;;;5015652;28;20087;-88
2024/01/19 10:44:17;;;;;;;13.10;6.65;;;;;;;;;;5017629;28;20556;-89
2024/01/19 10:46:43;;;;;;;12.50;6.70;;;;;;;;;;5017664;28;20509;-88
2024/01/19 10:49:10;;;;;;;15.63;6.80;;;;;;;;;;5018376;28;20038;-86
2024/01/19 10:51:45;;;;;;;8.90;5.32;;;;;;;;;;5019176;28;20022;-88
2024/01/19 10:54:17;;;;;;;4.88;2.83;;;;;;;;;;5020252;28;20084;-87
2024/01/19 10:56:44;;;;;;;8.65;3.95;;;;;;;;;;5020927;28;20194;-88
2024/01/19 10:59:30;;;;;;;10.05;4.68;;;;;;;;;;5020427;28;20563;-87
2024/01/19 11:02:03;;;;;;;9.13;5.70;;;;;;;;;;5029517;28;20021;-89
2024/01/19 11:04:28;;;;;;;12.65;6.30;;;;;;;;;;5027718;28;20025;-90
2024/01/19 11:06:54;;;;;;;6.68;4.18;;;;;;;;;;5038635;28;20030;-89
2024/01/19 11:09:20;;;;;;;5.00;3.97;;;;;;;;;;5020711;28;20369;-87
2024/01/19 11:11:58;;;;;;;7.60;4.55;;;;;;;;;;5019456;28;20030;-87
2024/01/19 11:14:25;;;;;;;12.45;4.65;;;;;;;;;;5035490;28;20050;-88
2024/01/19 11:16:55;;;;;;;10.52;5.15;;;;;;;;;;5017825;28;20026;-89
2024/01/19 11:19:25;;;;;;;7.45;4.55;;;;;;;;;;5016770;28;20160;-88
2024/01/19 11:21:51;;;;;;;7.22;4.32;;;;;;;;;;5017871;28;20077;-88
2024/01/19 11:24:18;;;;;;;12.40;6.63;;;;;;;;;;5016431;28;20041;-88
2024/01/19 11:27:06;;;;;;;9.07;4.50;;;;;;;;;;5016599;28;20028;-87
2024/01/19 11:29:36;;;;;;;12.90;5.32;;;;;;;;;;5017335;28;20026;-89
2024/01/19 11:32:02;;;;;;;5.80;4.00;;;;;;;;;;5017225;28;20025;-89
2024/01/19 11:34:49;;;;;;;9.57;4.78;;;;;;;;;;5017844;28;20029;-88
2024/01/19 11:37:39;;;;;;;7.53;4.28;;;;;;;;;;5017573;28;20029;-88
2024/01/19 11:40:06;;;;;;;10.57;5.03;;;;;;;;;;5016053;28;20030;-88
2024/01/19 11:42:35;;;;;;;14.55;6.05;;;;;;;;;;5015344;28;20037;-88
2024/01/19 11:45:01;;;;;;;7.15;4.35;;;;;;;;;;5016497;28;20060;-89
2024/01/19 11:47:35;;;;;;;6.22;4.22;;;;;;;;;;5016507;28;20108;-88
2024/01/19 11:50:07;;;;;;;7.47;5.20;;;;;;;;;;5019959;28;20038;-89
2024/01/19 11:52:38;;;;;;;7.03;3.70;;;;;;;;;;5016570;28;20103;-88
2024/01/19 11:55:25;;;;;;;8.35;5.25;;;;;;;;;;5016813;28;20033;-87
2024/01/19 11:57:51;;;;;;;8.38;4.18;;;;;;;;;;5015738;28;20108;-89
2024/01/19 12:00:16;;;;;;;7.50;4.25;;;;;;;;;;5013713;28;20694;-87
2024/01/19 12:02:43;;;;;;;2.42;2.05;;;;;;;;;;5014378;28;20404;-86
2024/01/19 12:05:10;;;;;;;2.40;2.20;;;;;;;;;;5013529;28;20041;-88
2024/01/19 12:07:35;;;;;;;4.40;2.72;;;;;;;;;;5013165;28;20480;-89
2024/01/19 12:10:18;;;;;;;3.83;1.88;;;;;;;;;;5012925;28;20126;-87
2024/01/19 12:12:43;;;;;;;2.35;2.15;;;;;;;;;;5016057;28;20486;-88
2024/01/19 12:15:10;;;;;;;6.25;4.22;;;;;;;;;;5017595;28;20550;-88
2024/01/19 12:17:40;;;;;;;7.55;3.83;;;;;;;;;;5017650;28;20053;-88
2024/01/19 12:20:10;;;;;;;6.57;3.15;;;;;;;;;;5027068;28;20387;-88
2024/01/19 12:22:36;;;;;;;9.50;3.80;;;;;;;;;;5014002;28;20511;-88
2024/01/19 12:25:12;;;;;;;2.58;1.92;;;;;;;;;;5019164;28;20041;-86
2024/01/19 12:27:38;;;;;;;5.22;2.60;;;;;;;;;;5015641;28;20021;-87
2024/01/19 12:30:14;;;;;;;5.05;4.47;;;;;;;;;;5014307;28;20021;-88
2024/01/19 12:32:40;;;;;;;3.80;3.08;;;;;;;;;;5014501;28;20229;-87
2024/01/19 12:35:06;;;;;;;8.18;4.20;;;;;;;;;;5014765;28;20053;-88
2024/01/19 12:37:31;;;;;;;11.57;5.30;;;;;;;;;;5013732;28;20022;-88
2024/01/19 12:40:13;;;;;;;2.90;2.28;;;;;;;;;;5014631;28;20049;-88
2024/01/19 12:42:41;;;;;;;3.75;3.45;;;;;;;;;;5015759;28;20101;-87
2024/01/19 12:45:07;;;;;;;12.90;3.20;;;;;;;;;;5017516;28;20144;-87
2024/01/19 12:47:33;;;;;;;3.83;2.70;;;;;;;;;;5017229;28;20018;-88
2024/01/19 12:49:58;;;;;;;5.88;3.50;;;;;;;;;;5018834;28;20041;-88
2024/01/19 12:52:24;;;;;;;4.10;2.65;;;;;;;;;;5017480;28;20026;-87
2024/01/19 12:54:50;;;;;;;7.38;2.70;;;;;;;;;;5017060;28;20030;-88
2024/01/19 12:57:19;;;;;;;4.03;3.15;;;;;;;;;;5016844;28;20030;-88
2024/01/19 12:59:45;;;;;;;6.13;3.58;;;;;;;;;;5017035;28;20084;-87
2024/01/19 13:02:11;;;;;;;4.40;2.47;;;;;;;;;;5015830;28;20080;-88
2024/01/19 13:04:37;;;;;;;3.80;2.30;;;;;;;;;;5016307;28;20030;-88
2024/01/19 13:07:03;;;;;;;3.45;2.60;;;;;;;;;;5016424;28;20022;-87
2024/01/19 13:09:28;;;;;;;1.23;1.17;;;;;;;;;;5020339;28;20089;-87
2024/01/19 13:12:09;;;;;;;7.80;2.72;;;;;;;;;;5024207;28;20080;-88
2024/01/19 13:14:34;;;;;;;4.05;3.45;;;;;;;;;;5013978;28;20026;-88
2024/01/19 13:17:03;;;;;;;2.10;1.95;;;;;;;;;;5013759;28;20092;-88
2024/01/19 13:19:29;;;;;;;1.67;1.58;;;;;;;;;;5012699;28;20484;-88
2024/01/19 13:22:03;;;;;;;3.88;2.90;;;;;;;;;;5014427;28;20435;-88
2024/01/19 13:24:28;;;;;;;6.13;3.10;;;;;;;;;;5020433;28;20057;-90
2024/01/19 13:27:01;;;;;;;2.22;1.98;;;;;;;;;;5028007;28;20089;-90
2024/01/19 13:29:26;;;;;;;6.53;2.15;;;;;;;;;;5032516;28;20045;-91
2024/01/19 13:31:52;;;;;;;9.23;3.13;;;;;;;;;;5034650;28;20084;-90
2024/01/19 13:34:17;;;;;;;1.90;1.80;;;;;;;;;;5034005;28;20026;-89
2024/01/19 13:36:42;;;;;;;3.75;2.35;;;;;;;;;;5035017;28;20029;-89
2024/01/19 13:39:08;;;;;;;3.00;2.00;;;;;;;;;;5034230;28;20094;-89
2024/01/19 13:41:33;;;;;;;1.48;1.38;;;;;;;;;;5036308;28;20044;-91
2024/01/19 13:44:00;;;;;;;1.27;1.17;;;;;;;;;;5034929;28;20033;-86
2024/01/19 13:46:25;;;;;;;3.78;2.72;;;;;;;;;;5019894;28;20036;-86
2024/01/19 13:48:51;;;;;;;3.25;2.95;;;;;;;;;;5022442;28;20045;-86
2024/01/19 13:51:16;;;;;;;6.03;2.40;;;;;;;;;;5022646;28;20030;-88
2024/01/19 13:53:41;;;;;;;2.20;1.38;;;;;;;;;;5023895;28;20108;-86
2024/01/19 13:56:08;;;;;;;2.60;1.20;;;;;;;;;;5022864;28;20516;-88
2024/01/19 13:58:34;;;;;;;4.85;3.90;;;;;;;;;;5022486;28;20108;-86
2024/01/19 14:00:59;;;;;;;4.45;2.78;;;;;;;;;;5023402;28;20053;-86
2024/01/19 14:03:25;;;;;;;1.30;1.10;;;;;;;;;;5022387;28;20029;-88
2024/01/19 14:05:50;;;;;;;2.97;2.55;;;;;;;;;;5023003;28;20033;-86
2024/01/19 14:08:18;;;;;;;1.58;1.48;;;;;;;;;;5024188;28;20026;-89
2024/01/19 14:10:48;;;;;;;3.78;3.47;;;;;;;;;;5023303;28;20041;-86
2024/01/19 14:13:15;;;;;;;5.05;1.60;;;;;;;;;;5024300;28;20029;-87
2024/01/19 14:15:43;;;;;;;1.90;1.65;;;;;;;;;;5025720;28;20283;-88
2024/01/19 14:18:09;;;;;;;1.83;1.67;;;;;;;;;;5022048;28;20036;-88
2024/01/19 14:20:34;;;;;;;4.95;2.28;;;;;;;;;;5022080;28;20041;-86
2024/01/19 14:22:59;;;;;;;4.18;1.10;;;;;;;;;;5023088;28;20025;-89
2024/01/19 14:25:25;;;;;;;5.90;2.33;;;;;;;;;;5021653;28;20095;-88
2024/01/19 14:27:50;;;;;;;5.95;2.35;;;;;;;;;;5019460;28;20480;-87
2024/01/19 14:30:15;;;;;;;3.33;2.63;;;;;;;;;;5018478;28;20053;-87
2024/01/19 14:32:41;;;;;;;6.30;3.97;;;;;;;;;;5018574;28;20021;-88
2024/01/19 14:35:07;;;;;;;4.18;2.75;;;;;;;;;;5018645;28;20053;-89
2024/01/19 14:37:32;;;;;;;2.35;1.88;;;;;;;;;;5019448;28;20037;-87